createdAt,value
2018-01-04T00:00:04.996Z,0
2018-01-04T00:01:14.966Z,0
2018-01-04T00:02:24.681Z,0
2018-01-04T00:03:34.154Z,0
2018-01-04T00:04:44.135Z,0
2018-01-04T00:05:54.085Z,0
2018-01-04T00:07:03.817Z,0
2018-01-04T00:08:13.813Z,0
2018-01-04T00:09:23.793Z,0
2018-01-04T00:11:05.592Z,0
2018-01-04T00:12:15.560Z,0
2018-01-04T00:15:07.163Z,0
2018-01-04T00:16:17.139Z,0
2018-01-04T00:17:27.114Z,0
2018-01-04T00:18:37.084Z,0
2018-01-04T00:19:47.071Z,0
2018-01-04T00:20:57.029Z,0
2018-01-04T00:22:07.042Z,0
2018-01-04T00:23:16.758Z,0
2018-01-04T00:24:26.720Z,0
2018-01-04T00:25:36.453Z,0
2018-01-04T00:27:18.273Z,0
2018-01-04T00:29:00.077Z,0
2018-01-04T00:30:20.327Z,0
2018-01-04T00:31:30.377Z,0
2018-01-04T00:32:40.364Z,0
2018-01-04T00:33:50.339Z,0
2018-01-04T00:35:00.375Z,0
2018-01-04T00:36:10.330Z,0
2018-01-04T00:37:51.596Z,0
2018-01-04T00:39:11.829Z,0
2018-01-04T00:40:24.615Z,0
2018-01-04T00:42:09.461Z,0
2018-01-04T00:47:46.426Z,0
2018-01-04T00:49:06.391Z,0
2018-01-04T00:50:16.388Z,0
2018-01-04T00:51:26.342Z,0
2018-01-04T00:52:36.302Z,0
2018-01-04T00:53:46.262Z,0
2018-01-04T00:54:56.233Z,0
2018-01-04T00:56:06.192Z,0
2018-01-04T00:57:16.158Z,0
2018-01-04T00:58:25.882Z,0
2018-01-04T00:59:35.618Z,0
2018-01-04T01:00:45.346Z,0
2018-01-04T01:01:54.801Z,0
2018-01-04T01:03:04.515Z,0
2018-01-04T01:04:14.499Z,0
2018-01-04T01:05:24.209Z,0
2018-01-04T01:06:34.187Z,0
2018-01-04T01:07:44.152Z,0
2018-01-04T01:08:54.115Z,0
2018-01-04T01:10:04.089Z,0
2018-01-04T01:11:14.079Z,0
2018-01-04T01:12:23.783Z,0
2018-01-04T01:13:33.240Z,0
2018-01-04T01:14:42.952Z,0
2018-01-04T01:15:52.936Z,0
2018-01-04T01:17:02.910Z,0
2018-01-04T01:18:12.954Z,0
2018-01-04T01:19:22.942Z,0
2018-01-04T01:20:32.659Z,0
2018-01-04T01:21:42.113Z,0
2018-01-04T01:22:51.830Z,0
2018-01-04T01:24:01.539Z,0
2018-01-04T01:25:11.520Z,0
2018-01-04T01:26:21.494Z,0
2018-01-04T01:27:31.515Z,0
2018-01-04T01:28:41.473Z,0
2018-01-04T01:29:51.492Z,0
2018-01-04T01:31:01.195Z,0
2018-01-04T01:32:11.168Z,0
2018-01-04T01:33:21.189Z,0
2018-01-04T01:34:31.149Z,0
2018-01-04T01:35:40.610Z,0
2018-01-04T01:36:49.825Z,0
2018-01-04T01:37:59.792Z,0
2018-01-04T01:39:09.750Z,0
2018-01-04T01:40:19.709Z,0
2018-01-04T01:41:29.680Z,0
2018-01-04T01:42:39.375Z,0
2018-01-04T01:43:49.983Z,0
2018-01-04T01:45:31.773Z,0
2018-01-04T01:46:41.811Z,0
2018-01-04T01:48:04.274Z,0
2018-01-04T01:49:13.997Z,0
2018-01-04T01:50:26.478Z,0
2018-01-04T01:53:17.969Z,0
2018-01-04T01:54:27.414Z,0
2018-01-04T01:55:37.220Z,0
2018-01-04T01:56:46.934Z,0
2018-01-04T01:57:56.639Z,0
2018-01-04T01:59:06.540Z,0
2018-01-04T02:00:16.519Z,0
2018-01-04T02:01:26.506Z,0
2018-01-04T02:03:08.058Z,0
2018-01-04T02:04:18.027Z,0
2018-01-04T02:05:59.822Z,0
2018-01-04T02:07:09.782Z,0
2018-01-04T02:08:19.739Z,0
2018-01-04T02:09:29.748Z,0
2018-01-04T02:10:39.445Z,0
2018-01-04T02:11:49.423Z,0
2018-01-04T02:12:59.127Z,0
2018-01-04T02:14:09.093Z,0
2018-01-04T02:15:19.057Z,0
2018-01-04T02:16:28.756Z,0
2018-01-04T02:17:38.742Z,0
2018-01-04T02:18:48.458Z,0
2018-01-04T02:19:58.437Z,0
2018-01-04T02:21:08.142Z,0
2018-01-04T02:22:17.576Z,0
2018-01-04T02:23:27.284Z,0
2018-01-04T02:24:37.246Z,0
2018-01-04T02:25:47.222Z,0
2018-01-04T02:26:57.189Z,0
2018-01-04T02:28:07.156Z,0
2018-01-04T02:29:17.117Z,0
2018-01-04T02:30:26.866Z,0
2018-01-04T02:31:36.553Z,0
2018-01-04T02:32:46.293Z,0
2018-01-04T02:33:56.269Z,0
2018-01-04T02:35:05.727Z,0
2018-01-04T02:36:15.179Z,0
2018-01-04T02:37:25.139Z,0
2018-01-04T02:38:35.981Z,0
2018-01-04T02:39:45.424Z,0
2018-01-04T02:40:55.128Z,0
2018-01-04T02:42:05.099Z,0
2018-01-04T02:43:14.810Z,0
2018-01-04T02:44:24.771Z,0
2018-01-04T02:45:34.781Z,0
2018-01-04T02:46:44.492Z,0
2018-01-04T02:47:53.958Z,0
2018-01-04T02:49:03.977Z,0
2018-01-04T02:50:13.700Z,0
2018-01-04T02:51:23.404Z,0
2018-01-04T02:52:33.376Z,0
2018-01-04T02:53:43.347Z,0
2018-01-04T02:54:53.065Z,0
2018-01-04T02:56:02.522Z,0
2018-01-04T02:57:12.421Z,0
2018-01-04T02:58:22.438Z,0
2018-01-04T02:59:32.506Z,0
2018-01-04T03:04:37.579Z,0
2018-01-04T03:05:47.585Z,0
2018-01-04T03:06:57.316Z,0
2018-01-04T03:08:07.034Z,0
2018-01-04T03:09:16.982Z,0
2018-01-04T03:10:58.528Z,0
2018-01-04T03:13:50.286Z,0
2018-01-04T03:15:00.306Z,0
2018-01-04T03:16:10.320Z,0
2018-01-04T03:17:20.330Z,0
2018-01-04T03:18:30.310Z,0
2018-01-04T03:19:40.045Z,0
2018-01-04T03:20:49.758Z,0
2018-01-04T03:21:59.495Z,0
2018-01-04T03:23:09.449Z,0
2018-01-04T03:24:19.414Z,0
2018-01-04T03:25:28.606Z,0
2018-01-04T03:26:38.574Z,0
2018-01-04T03:27:48.270Z,0
2018-01-04T03:28:58.245Z,0
2018-01-04T03:30:07.962Z,0
2018-01-04T03:31:17.969Z,0
2018-01-04T03:32:27.968Z,0
2018-01-04T03:33:37.676Z,0
2018-01-04T03:34:47.637Z,0
2018-01-04T03:35:57.088Z,0
2018-01-04T03:37:07.047Z,0
2018-01-04T03:38:17.016Z,0
2018-01-04T03:39:26.708Z,0
2018-01-04T03:40:36.152Z,0
2018-01-04T03:41:45.850Z,0
2018-01-04T03:42:55.558Z,0
2018-01-04T03:44:05.254Z,0
2018-01-04T03:45:14.949Z,0
2018-01-04T03:46:24.892Z,0
2018-01-04T03:47:34.845Z,0
2018-01-04T03:48:44.541Z,0
2018-01-04T03:49:54.274Z,0
2018-01-04T03:51:04.240Z,0
2018-01-04T03:52:13.956Z,0
2018-01-04T03:53:23.663Z,0
2018-01-04T03:54:33.619Z,0
2018-01-04T03:55:43.072Z,0
2018-01-04T03:56:53.050Z,0
2018-01-04T03:58:03.009Z,0
2018-01-04T03:59:12.966Z,0
2018-01-04T04:00:22.925Z,0
2018-01-04T04:01:32.634Z,0
2018-01-04T04:02:42.603Z,0
2018-01-04T04:03:52.564Z,0
2018-01-04T04:05:02.519Z,0
2018-01-04T04:06:12.495Z,0
2018-01-04T04:07:21.944Z,0
2018-01-04T04:08:31.909Z,0
2018-01-04T04:09:41.607Z,0
2018-01-04T04:10:51.566Z,0
2018-01-04T04:12:01.537Z,0
2018-01-04T04:13:11.247Z,0
2018-01-04T04:14:20.696Z,0
2018-01-04T04:15:30.135Z,0
2018-01-04T04:16:39.847Z,0
2018-01-04T04:17:49.828Z,0
2018-01-04T04:18:59.548Z,0
2018-01-04T04:20:09.519Z,0
2018-01-04T04:21:19.484Z,0
2018-01-04T04:22:29.443Z,0
2018-01-04T04:23:39.387Z,0
2018-01-04T04:24:49.339Z,0
2018-01-04T04:25:59.294Z,0
2018-01-04T04:27:09.262Z,0
2018-01-04T04:28:18.963Z,0
2018-01-04T04:29:28.936Z,0
2018-01-04T04:30:38.640Z,0
2018-01-04T04:31:48.603Z,0
2018-01-04T04:32:58.313Z,0
2018-01-04T04:34:08.258Z,0
2018-01-04T04:35:18.237Z,0
2018-01-04T04:36:28.201Z,0
2018-01-04T04:37:38.175Z,0
2018-01-04T04:38:48.158Z,0
2018-01-04T04:39:58.180Z,0
2018-01-04T04:41:07.892Z,0
2018-01-04T04:42:17.865Z,0
2018-01-04T04:43:27.601Z,0
2018-01-04T04:44:37.310Z,0
2018-01-04T04:45:47.039Z,0
2018-01-04T04:46:57.006Z,0
2018-01-04T04:48:06.453Z,0
2018-01-04T04:49:15.892Z,0
2018-01-04T04:53:11.349Z,0
2018-01-04T04:54:21.372Z,0
2018-01-04T04:55:31.336Z,0
2018-01-04T04:56:41.063Z,0
2018-01-04T04:57:51.048Z,0
2018-01-04T04:59:32.859Z,0
2018-01-04T05:00:42.573Z,0
2018-01-04T05:03:34.105Z,0
2018-01-04T05:04:44.137Z,0
2018-01-04T05:05:54.091Z,0
2018-01-04T05:07:04.083Z,0
2018-01-04T05:08:14.045Z,0
2018-01-04T05:09:23.763Z,0
2018-01-04T05:10:33.463Z,0
2018-01-04T05:11:43.418Z,0
2018-01-04T05:12:53.112Z,0
2018-01-04T05:14:02.570Z,0
2018-01-04T05:15:12.274Z,0
2018-01-04T05:16:22.257Z,0
2018-01-04T05:17:32.267Z,0
2018-01-04T05:18:42.236Z,0
2018-01-04T05:19:52.228Z,0
2018-01-04T05:21:01.957Z,0
2018-01-04T05:22:11.703Z,0
2018-01-04T05:23:21.676Z,0
2018-01-04T05:24:31.653Z,0
2018-01-04T05:25:41.630Z,0
2018-01-04T05:26:51.344Z,0
2018-01-04T05:28:01.330Z,0
2018-01-04T05:29:11.307Z,0
2018-01-04T05:30:21.055Z,0
2018-01-04T05:31:30.806Z,0
2018-01-04T05:32:40.772Z,0
2018-01-04T05:33:50.212Z,0
2018-01-04T05:34:59.913Z,0
2018-01-04T05:36:09.368Z,0
2018-01-04T05:37:19.335Z,0
2018-01-04T05:39:01.172Z,0
2018-01-04T05:40:10.625Z,0
2018-01-04T05:41:20.076Z,0
2018-01-04T05:42:29.779Z,0
2018-01-04T05:43:39.766Z,0
2018-01-04T05:44:50.209Z,0
2018-01-04T05:46:00.198Z,0
2018-01-04T05:47:09.902Z,0
2018-01-04T05:48:19.606Z,0
2018-01-04T05:49:29.561Z,0
2018-01-04T05:50:39.339Z,0
2018-01-04T05:51:49.292Z,0
2018-01-04T05:52:59.018Z,0
2018-01-04T05:54:08.485Z,0
2018-01-04T05:55:18.217Z,0
2018-01-04T05:56:28.197Z,0
2018-01-04T05:57:38.182Z,0
2018-01-04T05:58:47.900Z,0
2018-01-04T05:59:57.925Z,0
2018-01-04T06:01:07.385Z,0
2018-01-04T06:02:17.348Z,0
2018-01-04T06:03:27.063Z,0
2018-01-04T06:04:37.051Z,0
2018-01-04T06:05:47.016Z,0
2018-01-04T06:06:56.993Z,0
2018-01-04T06:08:06.949Z,0
2018-01-04T06:09:16.921Z,0
2018-01-04T06:10:26.903Z,0
2018-01-04T06:11:36.883Z,0
2018-01-04T06:12:46.853Z,0
2018-01-04T06:13:56.586Z,0
2018-01-04T06:15:06.312Z,0
2018-01-04T06:16:16.306Z,0
2018-01-04T06:17:26.012Z,0
2018-01-04T06:18:54.931Z,0
2018-01-04T06:22:18.536Z,0
2018-01-04T06:23:28.259Z,0
2018-01-04T06:24:38.242Z,0
2018-01-04T06:25:48.231Z,0
2018-01-04T06:26:58.213Z,0
2018-01-04T06:28:08.188Z,0
2018-01-04T06:31:32.722Z,0
2018-01-04T06:32:42.687Z,0
2018-01-04T06:33:52.650Z,0
2018-01-04T06:35:02.619Z,0
2018-01-04T06:36:12.361Z,0
2018-01-04T06:37:25.378Z,0
2018-01-04T06:39:07.174Z,0
2018-01-04T06:40:48.978Z,0
2018-01-04T06:41:58.757Z,0
2018-01-04T06:43:08.228Z,0
2018-01-04T06:44:18.192Z,0
2018-01-04T06:47:10.044Z,0
2018-01-04T06:48:20.017Z,0
2018-01-04T06:49:29.215Z,0
2018-01-04T06:50:38.932Z,0
2018-01-04T06:51:48.898Z,0
2018-01-04T06:52:58.866Z,0
2018-01-04T06:54:08.868Z,0
2018-01-04T06:55:18.584Z,0
2018-01-04T06:56:28.306Z,0
2018-01-04T06:57:38.020Z,0
2018-01-04T06:58:47.731Z,0
2018-01-04T06:59:57.705Z,0
2018-01-04T07:01:07.754Z,0
2018-01-04T07:02:17.743Z,0
2018-01-04T07:03:27.467Z,0
2018-01-04T07:04:37.443Z,0
2018-01-04T07:05:47.445Z,0
2018-01-04T07:06:57.158Z,0
2018-01-04T07:08:06.882Z,0
2018-01-04T07:09:16.857Z,0
2018-01-04T07:10:26.866Z,0
2018-01-04T07:11:36.966Z,0
2018-01-04T07:12:46.968Z,0
2018-01-04T07:13:56.976Z,0
2018-01-04T07:15:07.051Z,0
2018-01-04T07:16:16.622Z,0
2018-01-04T07:17:26.646Z,5
2018-01-04T07:18:36.744Z,5
2018-01-04T07:19:46.593Z,0
2018-01-04T07:20:56.467Z,5
2018-01-04T07:22:06.041Z,5
2018-01-04T07:23:16.153Z,5
2018-01-04T07:24:26.180Z,5
2018-01-04T07:25:36.216Z,5
2018-01-04T07:26:46.236Z,5
2018-01-04T07:27:56.250Z,5
2018-01-04T07:29:06.015Z,10
2018-01-04T07:30:15.903Z,10
2018-01-04T07:31:25.387Z,10
2018-01-04T07:32:35.406Z,5
2018-01-04T07:33:45.179Z,5
2018-01-04T07:34:55.749Z,5
2018-01-04T07:36:05.877Z,5
2018-01-04T07:37:15.879Z,5
2018-01-04T07:38:25.614Z,5
2018-01-04T07:39:39.203Z,10
2018-01-04T07:40:49.635Z,10
2018-01-04T07:41:59.651Z,10
2018-01-04T07:43:09.637Z,10
2018-01-04T07:44:19.622Z,10
2018-01-04T07:45:29.623Z,10
2018-01-04T07:46:39.361Z,5
2018-01-04T07:47:49.358Z,10
2018-01-04T07:48:59.394Z,10
2018-01-04T07:50:09.399Z,10
2018-01-04T07:51:19.135Z,5
2018-01-04T07:52:29.144Z,10
2018-01-04T07:53:38.900Z,10
2018-01-04T07:54:48.632Z,10
2018-01-04T07:55:58.625Z,10
2018-01-04T07:57:08.632Z,10
2018-01-04T07:58:18.642Z,10
2018-01-04T07:59:28.634Z,10
2018-01-04T08:00:38.375Z,15
2018-01-04T08:01:48.120Z,15
2018-01-04T08:02:57.882Z,15
2018-01-04T08:04:07.643Z,20
2018-01-04T08:05:17.667Z,25
2018-01-04T08:06:27.427Z,30
2018-01-04T08:07:37.460Z,25
2018-01-04T08:08:47.218Z,25
2018-01-04T08:09:57.253Z,20
2018-01-04T08:11:07.316Z,25
2018-01-04T08:12:17.299Z,25
2018-01-04T08:13:27.293Z,25
2018-01-04T08:14:37.284Z,25
2018-01-04T08:15:47.313Z,30
2018-01-04T08:16:57.088Z,35
2018-01-04T08:18:06.839Z,40
2018-01-04T08:19:16.822Z,45
2018-01-04T08:20:26.822Z,60
2018-01-04T08:21:36.563Z,60
2018-01-04T08:22:46.643Z,55
2018-01-04T08:23:56.672Z,45
2018-01-04T08:25:06.696Z,40
2018-01-04T08:26:16.455Z,40
2018-01-04T08:27:26.441Z,60
2018-01-04T08:28:36.173Z,70
2018-01-04T08:29:45.913Z,65
2018-01-04T08:30:55.626Z,55
2018-01-04T08:32:05.372Z,60
2018-01-04T08:33:15.186Z,60
2018-01-04T08:34:25.175Z,50
2018-01-04T08:35:35.223Z,50
2018-01-04T08:36:44.984Z,60
2018-01-04T08:37:54.949Z,70
2018-01-04T08:39:04.665Z,70
2018-01-04T08:40:14.434Z,70
2018-01-04T08:41:24.170Z,65
2018-01-04T08:42:34.150Z,50
2018-01-04T08:43:44.138Z,50
2018-01-04T08:44:53.858Z,35
2018-01-04T08:46:03.564Z,35
2018-01-04T08:47:13.278Z,45
2018-01-04T08:48:23.016Z,45
2018-01-04T08:49:33.008Z,40
2018-01-04T08:50:43.000Z,45
2018-01-04T08:51:52.740Z,65
2018-01-04T08:53:02.798Z,75
2018-01-04T08:54:12.810Z,85
2018-01-04T08:55:22.798Z,95
2018-01-04T08:56:32.787Z,95
2018-01-04T08:57:42.290Z,100
2018-01-04T08:58:52.003Z,110
2018-01-04T09:00:01.994Z,125
2018-01-04T09:01:11.711Z,125
2018-01-04T09:02:21.726Z,140
2018-01-04T09:03:31.712Z,145
2018-01-04T09:04:41.441Z,150
2018-01-04T09:05:51.184Z,170
2018-01-04T09:07:00.628Z,210
2018-01-04T09:08:10.590Z,205
2018-01-04T09:09:20.569Z,180
2018-01-04T09:10:30.568Z,160
2018-01-04T09:11:40.293Z,135
2018-01-04T09:12:50.271Z,140
2018-01-04T09:14:00.269Z,140
2018-01-04T09:15:10.020Z,165
2018-01-04T09:16:20.025Z,185
2018-01-04T09:17:30.003Z,190
2018-01-04T09:18:39.831Z,195
2018-01-04T09:19:49.823Z,175
2018-01-04T09:20:59.812Z,150
2018-01-04T09:22:09.789Z,145
2018-01-04T09:23:19.240Z,145
2018-01-04T09:24:29.224Z,150
2018-01-04T09:25:38.183Z,155
2018-01-04T09:26:47.641Z,155
2018-01-04T09:27:57.160Z,120
2018-01-04T09:29:06.910Z,110
2018-01-04T09:30:16.886Z,95
2018-01-04T09:31:27.020Z,95
2018-01-04T09:32:36.718Z,115
2018-01-04T09:33:46.787Z,120
2018-01-04T09:34:56.754Z,105
2018-01-04T09:36:06.553Z,80
2018-01-04T09:37:16.562Z,80
2018-01-04T09:38:26.710Z,80
2018-01-04T09:39:37.374Z,85
2018-01-04T09:40:47.259Z,85
2018-01-04T09:41:57.363Z,85
2018-01-04T09:43:07.191Z,85
2018-01-04T09:44:17.098Z,95
2018-01-04T09:45:26.726Z,95
2018-01-04T09:46:36.784Z,100
2018-01-04T09:47:52.096Z,85
2018-01-04T09:49:03.608Z,70
2018-01-04T09:50:15.250Z,65
2018-01-04T09:51:26.184Z,70
2018-01-04T09:52:37.208Z,85
2018-01-04T09:53:46.765Z,145
2018-01-04T09:54:56.727Z,165
2018-01-04T09:56:06.758Z,165
2018-01-04T09:57:16.464Z,180
2018-01-04T09:58:26.161Z,215
2018-01-04T09:59:36.119Z,210
2018-01-04T10:00:46.082Z,155
2018-01-04T10:01:56.039Z,145
2018-01-04T10:03:07.570Z,120
2018-01-04T10:04:20.440Z,145
2018-01-04T10:06:13.184Z,130
2018-01-04T10:07:23.190Z,120
2018-01-04T10:08:32.935Z,125
2018-01-04T10:09:42.939Z,140
2018-01-04T10:10:52.909Z,140
2018-01-04T10:12:03.074Z,145
2018-01-04T10:13:12.273Z,140
2018-01-04T10:14:22.231Z,120
2018-01-04T10:15:31.933Z,140
2018-01-04T10:16:41.640Z,170
2018-01-04T10:17:51.654Z,160
2018-01-04T10:19:01.644Z,160
2018-01-04T10:20:11.647Z,175
2018-01-04T10:21:21.364Z,205
2018-01-04T10:22:31.094Z,210
2018-01-04T10:23:41.077Z,220
2018-01-04T10:24:51.037Z,190
2018-01-04T10:26:00.756Z,205
2018-01-04T10:27:10.471Z,220
2018-01-04T10:28:20.241Z,175
2018-01-04T10:29:30.217Z,145
2018-01-04T10:30:40.194Z,140
2018-01-04T10:31:49.918Z,150
2018-01-04T10:32:59.637Z,195
2018-01-04T10:34:09.388Z,245
2018-01-04T10:35:19.407Z,230
2018-01-04T10:36:29.126Z,225
2018-01-04T10:37:39.110Z,220
2018-01-04T10:38:48.841Z,215
2018-01-04T10:39:58.842Z,215
2018-01-04T10:41:08.540Z,215
2018-01-04T10:42:18.558Z,220
2018-01-04T10:43:28.547Z,205
2018-01-04T10:44:38.004Z,190
2018-01-04T10:45:47.972Z,200
2018-01-04T10:46:58.006Z,210
2018-01-04T10:48:07.988Z,200
2018-01-04T10:49:17.708Z,205
2018-01-04T10:50:27.686Z,200
2018-01-04T10:51:37.127Z,190
2018-01-04T10:52:47.119Z,150
2018-01-04T10:53:57.094Z,145
2018-01-04T10:55:07.071Z,150
2018-01-04T10:56:16.767Z,150
2018-01-04T10:57:26.755Z,155
2018-01-04T10:58:36.474Z,150
2018-01-04T10:59:46.457Z,155
2018-01-04T11:00:56.429Z,155
2018-01-04T11:02:06.405Z,160
2018-01-04T11:03:16.597Z,175
2018-01-04T11:04:26.307Z,165
2018-01-04T11:05:36.092Z,155
2018-01-04T11:06:45.790Z,160
2018-01-04T11:07:55.503Z,115
2018-01-04T11:09:05.208Z,125
2018-01-04T11:10:15.174Z,145
2018-01-04T11:11:25.118Z,150
2018-01-04T11:12:35.095Z,155
2018-01-04T11:13:44.785Z,135
2018-01-04T11:14:54.485Z,120
2018-01-04T11:16:04.192Z,125
2018-01-04T11:17:13.894Z,135
2018-01-04T11:18:23.607Z,125
2018-01-04T11:19:33.302Z,130
2018-01-04T11:20:43.250Z,130
2018-01-04T11:21:52.691Z,125
2018-01-04T11:23:02.390Z,130
2018-01-04T11:24:12.355Z,115
2018-01-04T11:25:22.317Z,95
2018-01-04T11:26:32.281Z,90
2018-01-04T11:27:42.254Z,80
2018-01-04T11:28:52.243Z,75
2018-01-04T11:30:02.189Z,75
2018-01-04T11:31:11.637Z,80
2018-01-04T11:32:21.851Z,95
2018-01-04T11:33:31.564Z,90
2018-01-04T11:34:41.015Z,95
2018-01-04T11:35:50.984Z,95
2018-01-04T11:37:00.947Z,95
2018-01-04T11:38:10.899Z,100
2018-01-04T11:39:20.876Z,100
2018-01-04T11:40:31.101Z,105
2018-01-04T11:41:40.787Z,70
2018-01-04T11:42:50.485Z,75
2018-01-04T11:44:00.947Z,85
2018-01-04T11:45:10.893Z,85
2018-01-04T11:46:20.879Z,95
2018-01-04T11:47:30.603Z,115
2018-01-04T11:48:40.055Z,100
2018-01-04T11:49:50.043Z,115
2018-01-04T11:50:59.508Z,135
2018-01-04T11:52:09.227Z,105
2018-01-04T11:53:18.961Z,120
2018-01-04T11:54:29.034Z,145
2018-01-04T11:55:38.771Z,185
2018-01-04T11:56:48.862Z,225
2018-01-04T11:57:58.844Z,235
2018-01-04T11:59:08.838Z,180
2018-01-04T12:00:18.358Z,180
2018-01-04T12:01:28.352Z,180
2018-01-04T12:02:38.351Z,225
2018-01-04T12:03:48.139Z,230
2018-01-04T12:04:58.585Z,195
2018-01-04T12:06:08.118Z,210
2018-01-04T12:07:18.085Z,175
2018-01-04T12:08:28.193Z,170
2018-01-04T12:09:38.194Z,140
2018-01-04T12:10:48.219Z,115
2018-01-04T12:11:58.220Z,100
2018-01-04T12:13:07.945Z,120
2018-01-04T12:14:17.662Z,140
2018-01-04T12:15:27.385Z,130
2018-01-04T12:16:37.360Z,115
2018-01-04T12:17:47.476Z,105
2018-01-04T12:18:57.465Z,100
2018-01-04T12:20:07.203Z,105
2018-01-04T12:21:17.215Z,165
2018-01-04T12:22:27.224Z,210
2018-01-04T12:23:36.681Z,145
2018-01-04T12:24:46.647Z,125
2018-01-04T12:25:56.104Z,110
2018-01-04T12:27:06.093Z,120
2018-01-04T12:28:16.092Z,140
2018-01-04T12:29:25.824Z,150
2018-01-04T12:30:35.531Z,140
2018-01-04T12:31:45.147Z,110
2018-01-04T12:32:55.136Z,100
2018-01-04T12:34:05.118Z,90
2018-01-04T12:35:15.098Z,95
2018-01-04T12:36:24.826Z,100
2018-01-04T12:37:34.806Z,105
2018-01-04T12:38:44.537Z,100
2018-01-04T12:39:54.252Z,90
2018-01-04T12:41:03.982Z,95
2018-01-04T12:42:13.699Z,100
2018-01-04T12:43:23.689Z,95
2018-01-04T12:44:33.654Z,80
2018-01-04T12:45:43.637Z,75
2018-01-04T12:46:53.621Z,75
2018-01-04T12:48:03.584Z,85
2018-01-04T12:49:13.557Z,95
2018-01-04T12:50:23.633Z,100
2018-01-04T12:51:33.611Z,110
2018-01-04T12:52:43.626Z,90
2018-01-04T12:53:53.589Z,85
2018-01-04T12:55:03.556Z,95
2018-01-04T12:56:13.296Z,95
2018-01-04T12:57:23.323Z,90
2018-01-04T12:58:33.292Z,65
2018-01-04T12:59:42.988Z,65
2018-01-04T13:00:52.966Z,70
2018-01-04T13:02:02.660Z,65
2018-01-04T13:03:12.381Z,70
2018-01-04T13:04:22.082Z,100
2018-01-04T13:05:32.057Z,130
2018-01-04T13:06:41.880Z,145
2018-01-04T13:07:51.593Z,155
2018-01-04T13:09:01.583Z,150
2018-01-04T13:10:11.553Z,130
2018-01-04T13:11:21.554Z,110
2018-01-04T13:12:31.273Z,100
2018-01-04T13:13:41.241Z,105
2018-01-04T13:14:51.207Z,110
2018-01-04T13:16:01.234Z,130
2018-01-04T13:17:11.215Z,140
2018-01-04T13:18:21.212Z,140
2018-01-04T13:19:31.173Z,145
2018-01-04T13:20:40.658Z,145
2018-01-04T13:21:50.636Z,140
2018-01-04T13:23:00.354Z,130
2018-01-04T13:24:10.086Z,120
2018-01-04T13:25:20.124Z,115
2018-01-04T13:26:30.087Z,110
2018-01-04T13:27:39.866Z,100
2018-01-04T13:28:49.835Z,95
2018-01-04T13:29:59.803Z,100
2018-01-04T13:31:09.776Z,110
2018-01-04T13:32:19.506Z,110
2018-01-04T13:33:29.489Z,105
2018-01-04T13:34:39.546Z,105
2018-01-04T13:35:49.600Z,105
2018-01-04T13:36:59.577Z,100
2018-01-04T13:38:09.580Z,100
2018-01-04T13:39:19.557Z,110
2018-01-04T13:40:29.549Z,115
2018-01-04T13:41:39.256Z,120
2018-01-04T13:42:49.214Z,140
2018-01-04T13:43:59.193Z,260
2018-01-04T13:45:09.164Z,185
2018-01-04T13:46:19.132Z,200
2018-01-04T13:47:29.087Z,285
2018-01-04T13:48:38.540Z,175
2018-01-04T13:49:48.509Z,165
2018-01-04T13:50:58.460Z,175
2018-01-04T13:52:08.416Z,195
2018-01-04T13:53:18.385Z,220
2018-01-04T13:54:28.355Z,245
2018-01-04T13:55:38.310Z,265
2018-01-04T13:56:48.263Z,275
2018-01-04T13:57:58.222Z,270
2018-01-04T13:59:08.179Z,240
2018-01-04T14:00:18.194Z,215
2018-01-04T14:01:28.173Z,185
2018-01-04T14:02:38.119Z,175
2018-01-04T14:03:48.090Z,160
2018-01-04T14:04:58.055Z,155
2018-01-04T14:06:07.746Z,145
2018-01-04T14:07:17.453Z,135
2018-01-04T14:08:27.403Z,125
2018-01-04T14:09:37.393Z,120
2018-01-04T14:10:47.365Z,120
2018-01-04T14:11:57.347Z,120
2018-01-04T14:13:07.053Z,115
2018-01-04T14:14:17.019Z,110
2018-01-04T14:15:26.990Z,105
2018-01-04T14:16:36.687Z,105
2018-01-04T14:17:46.646Z,100
2018-01-04T14:18:56.611Z,100
2018-01-04T14:20:06.576Z,100
2018-01-04T14:21:16.542Z,95
2018-01-04T14:22:25.980Z,95
2018-01-04T14:23:35.672Z,100
2018-01-04T14:24:45.389Z,95
2018-01-04T14:25:55.343Z,90
2018-01-04T14:27:05.299Z,90
2018-01-04T14:28:14.746Z,85
2018-01-04T14:29:24.713Z,85
2018-01-04T14:30:34.693Z,85
2018-01-04T14:31:44.678Z,85
2018-01-04T14:32:54.393Z,80
2018-01-04T14:34:04.122Z,75
2018-01-04T14:35:14.094Z,70
2018-01-04T14:36:23.541Z,65
2018-01-04T14:37:33.555Z,60
2018-01-04T14:38:43.258Z,55
2018-01-04T14:39:53.215Z,50
2018-01-04T14:41:03.172Z,50
2018-01-04T14:42:13.141Z,45
2018-01-04T14:43:23.104Z,40
2018-01-04T14:44:33.134Z,40
2018-01-04T14:45:42.585Z,35
2018-01-04T14:46:52.023Z,35
2018-01-04T14:48:01.982Z,35
2018-01-04T14:49:11.419Z,35
2018-01-04T14:50:21.124Z,35
2018-01-04T14:51:31.091Z,35
2018-01-04T14:52:41.070Z,30
2018-01-04T14:53:51.046Z,30
2018-01-04T14:55:01.001Z,25
2018-01-04T14:56:10.957Z,25
2018-01-04T14:57:20.911Z,20
2018-01-04T14:58:30.614Z,20
2018-01-04T14:59:40.589Z,20
2018-01-04T15:00:50.545Z,20
2018-01-04T15:02:00.525Z,20
2018-01-04T15:03:10.476Z,20
2018-01-04T15:04:20.195Z,15
2018-01-04T15:05:29.904Z,15
2018-01-04T15:06:39.863Z,15
2018-01-04T15:07:49.626Z,10
2018-01-04T15:08:59.591Z,10
2018-01-04T15:10:09.562Z,10
2018-01-04T15:11:19.546Z,5
2018-01-04T15:12:29.696Z,5
2018-01-04T15:13:40.981Z,5
2018-01-04T15:14:52.145Z,5
2018-01-04T15:16:11.905Z,5
2018-01-04T15:17:22.141Z,0
2018-01-04T15:18:33.812Z,0
2018-01-04T15:19:44.131Z,0
2018-01-04T15:20:56.823Z,0
2018-01-04T15:22:06.545Z,0
2018-01-04T15:23:16.551Z,0
2018-01-04T15:24:26.528Z,0
2018-01-04T15:25:36.495Z,0
2018-01-04T15:26:46.537Z,0
2018-01-04T15:27:56.546Z,0
2018-01-04T15:29:06.531Z,0
2018-01-04T15:30:16.502Z,0
2018-01-04T15:31:26.479Z,0
2018-01-04T15:32:36.715Z,0
2018-01-04T15:33:46.424Z,0
2018-01-04T15:34:56.137Z,0
2018-01-04T15:36:05.594Z,0
2018-01-04T15:37:15.313Z,0
2018-01-04T15:38:25.281Z,0
2018-01-04T15:39:35.257Z,0
2018-01-04T15:40:45.259Z,0
2018-01-04T15:41:54.985Z,0
2018-01-04T15:43:04.970Z,0
2018-01-04T15:44:14.689Z,0
2018-01-04T15:45:24.146Z,0
2018-01-04T15:46:34.128Z,0
2018-01-04T15:47:44.094Z,0
2018-01-04T15:48:53.813Z,0
2018-01-04T15:50:03.800Z,0
2018-01-04T15:51:13.777Z,0
2018-01-04T15:52:23.294Z,0
2018-01-04T15:53:33.059Z,0
2018-01-04T15:54:42.825Z,0
2018-01-04T15:55:52.552Z,0
2018-01-04T15:57:02.040Z,0
2018-01-04T15:58:11.541Z,0
2018-01-04T15:59:21.548Z,0
2018-01-04T16:00:30.744Z,0
2018-01-04T16:01:40.224Z,0
2018-01-04T16:02:49.940Z,0
2018-01-04T16:03:59.664Z,0
2018-01-04T16:05:09.409Z,0
2018-01-04T16:06:19.115Z,0
2018-01-04T16:07:29.112Z,0
2018-01-04T16:08:39.082Z,0
2018-01-04T16:09:49.043Z,0
2018-01-04T16:10:58.242Z,0
2018-01-04T16:12:07.702Z,0
2018-01-04T16:13:17.414Z,0
2018-01-04T16:14:27.128Z,0
2018-01-04T16:15:36.822Z,0
2018-01-04T16:16:46.788Z,0
2018-01-04T16:17:56.484Z,0
2018-01-04T16:19:05.942Z,0
2018-01-04T16:20:15.657Z,0
2018-01-04T16:21:25.353Z,0
2018-01-04T16:22:34.860Z,0
2018-01-04T16:23:44.808Z,0
2018-01-04T16:24:54.780Z,0
2018-01-04T16:26:04.477Z,0
2018-01-04T16:27:14.489Z,0
2018-01-04T16:28:24.548Z,0
2018-01-04T16:29:34.493Z,0
2018-01-04T16:30:44.450Z,0
2018-01-04T16:31:54.143Z,0
2018-01-04T16:33:03.852Z,0
2018-01-04T16:34:13.553Z,0
2018-01-04T16:35:23.309Z,0
2018-01-04T16:36:33.478Z,0
2018-01-04T16:37:43.447Z,0
2018-01-04T16:38:53.142Z,0
2018-01-04T16:40:03.094Z,0
2018-01-04T16:41:13.060Z,0
2018-01-04T16:42:23.057Z,0
2018-01-04T16:43:33.025Z,0
2018-01-04T16:44:42.984Z,0
2018-01-04T16:45:52.994Z,0
2018-01-04T16:47:02.981Z,0
2018-01-04T16:48:12.725Z,0
2018-01-04T16:49:22.709Z,0
2018-01-04T16:50:32.682Z,0
2018-01-04T16:51:42.918Z,0
2018-01-04T16:52:52.882Z,0
2018-01-04T16:54:02.848Z,0
2018-01-04T16:55:12.850Z,0
2018-01-04T16:56:22.623Z,0
2018-01-04T16:57:32.592Z,0
2018-01-04T16:58:42.575Z,0
2018-01-04T16:59:52.774Z,0
2018-01-04T17:01:02.744Z,0
2018-01-04T17:02:12.714Z,0
2018-01-04T17:03:22.698Z,0
2018-01-04T17:04:32.694Z,0
2018-01-04T17:05:42.678Z,0
2018-01-04T17:06:52.398Z,0
2018-01-04T17:08:02.422Z,0
2018-01-04T17:09:12.391Z,0
2018-01-04T17:10:22.390Z,0
2018-01-04T17:11:32.390Z,0
2018-01-04T17:12:42.103Z,0
2018-01-04T17:13:52.103Z,0
2018-01-04T17:15:02.145Z,0
2018-01-04T17:16:12.141Z,0
2018-01-04T17:17:21.859Z,0
2018-01-04T17:18:31.850Z,0
2018-01-04T17:19:41.818Z,0